createdAt,value
2022-12-25T00:01:55.615Z,7.17
2022-12-25T00:04:23.028Z,7.21
2022-12-25T00:06:52.081Z,7.28
2022-12-25T00:09:18.431Z,7.33
2022-12-25T00:11:50.591Z,7.37
2022-12-25T00:14:17.480Z,7.44
2022-12-25T00:16:43.985Z,7.48
2022-12-25T00:19:13.620Z,7.52
2022-12-25T00:21:42.901Z,7.56
2022-12-25T00:24:09.725Z,7.62
2022-12-25T00:26:38.842Z,7.69
2022-12-25T00:29:14.838Z,7.74
2022-12-25T00:31:42.475Z,7.79
2022-12-25T00:34:08.869Z,7.82
2022-12-25T00:36:41.469Z,7.88
2022-12-25T00:39:10.970Z,7.92
2022-12-25T00:41:55.734Z,8.00
2022-12-25T00:47:10.484Z,8.06
2022-12-25T00:49:40.494Z,8.12
2022-12-25T00:52:19.497Z,8.18
2022-12-25T00:54:45.927Z,8.23
2022-12-25T00:57:18.612Z,8.27
2022-12-25T00:59:48.761Z,8.31
2022-12-25T01:02:27.458Z,8.35
2022-12-25T01:07:42.120Z,8.37
2022-12-25T01:10:31.990Z,8.39
2022-12-25T01:12:58.680Z,8.45
2022-12-25T01:15:27.783Z,8.49
2022-12-25T01:17:56.964Z,8.51
2022-12-25T01:20:25.918Z,8.52
2022-12-25T01:22:52.881Z,8.55
2022-12-25T01:25:19.296Z,8.54
2022-12-25T01:27:45.739Z,8.53
2022-12-25T01:30:25.539Z,8.55
2022-12-25T01:35:40.483Z,8.54
2022-12-25T01:38:09.661Z,8.51
2022-12-25T01:40:36.021Z,8.48
2022-12-25T01:43:05.109Z,8.45
2022-12-25T01:45:37.378Z,8.41
2022-12-25T01:48:13.476Z,8.37
2022-12-25T01:50:49.957Z,8.32
2022-12-25T01:53:19.805Z,8.29
2022-12-25T01:55:53.295Z,8.23
2022-12-25T01:58:19.926Z,8.20
2022-12-25T02:00:46.523Z,8.18
2022-12-25T02:03:22.973Z,8.17
2022-12-25T02:05:50.728Z,8.16
2022-12-25T02:08:20.417Z,8.09
2022-12-25T02:10:50.136Z,8.07
2022-12-25T02:13:21.661Z,8.03
2022-12-25T02:16:15.892Z,7.94
2022-12-25T02:18:53.869Z,7.87
2022-12-25T02:21:57.985Z,7.82
2022-12-25T02:24:58.148Z,7.77
2022-12-25T02:27:53.293Z,7.74
2022-12-25T02:30:20.910Z,7.73
2022-12-25T02:33:25.017Z,7.71
2022-12-25T02:35:57.492Z,7.65
2022-12-25T02:38:43.674Z,7.64
2022-12-25T02:44:22.360Z,7.69
2022-12-25T02:50:31.525Z,7.63
2022-12-25T02:53:18.986Z,7.62
2022-12-25T02:56:09.277Z,7.62
2022-12-25T02:59:00.441Z,7.67
2022-12-25T03:01:53.405Z,7.74
2022-12-25T03:04:43.510Z,7.85
2022-12-25T03:10:33.526Z,7.97
2022-12-25T03:16:18.318Z,8.02
2022-12-25T03:18:44.938Z,8.02
2022-12-25T03:21:44.945Z,8.07
2022-12-25T03:24:32.899Z,8.20
2022-12-25T03:26:59.304Z,8.27
2022-12-25T03:29:50.992Z,8.30
2022-12-25T03:32:52.873Z,8.40
2022-12-25T03:35:44.852Z,8.45
2022-12-25T03:39:02.593Z,8.48
2022-12-25T03:42:08.936Z,8.47
2022-12-25T03:45:26.138Z,8.44
2022-12-25T03:48:13.519Z,8.45
2022-12-25T03:51:09.078Z,8.43
2022-12-25T03:54:31.917Z,8.45
2022-12-25T03:57:17.125Z,8.43
2022-12-25T04:00:14.185Z,8.41
2022-12-25T04:02:59.124Z,8.40
2022-12-25T04:05:53.889Z,8.40
2022-12-25T04:08:42.019Z,8.33
2022-12-25T04:11:27.374Z,8.24
2022-12-25T04:14:17.691Z,8.15
2022-12-25T04:17:05.411Z,8.09
2022-12-25T04:19:50.360Z,8.07
2022-12-25T04:22:44.248Z,8.09
2022-12-25T04:25:31.098Z,8.05
2022-12-25T04:28:27.162Z,8.05
2022-12-25T04:31:14.240Z,8.03
2022-12-25T04:33:59.243Z,8.00
2022-12-25T04:36:27.962Z,7.98
2022-12-25T04:38:54.407Z,7.96
2022-12-25T04:41:20.822Z,7.94
2022-12-25T04:43:47.248Z,7.90
2022-12-25T04:46:13.770Z,7.87
2022-12-25T04:48:40.206Z,7.84
2022-12-25T04:51:19.954Z,7.82
2022-12-25T04:53:50.379Z,7.77
2022-12-25T04:56:22.398Z,7.72
2022-12-25T04:58:52.050Z,7.67
2022-12-25T05:01:18.484Z,7.64
2022-12-25T05:03:49.165Z,7.60
2022-12-25T05:06:15.727Z,7.54
2022-12-25T05:08:42.306Z,7.50
2022-12-25T05:11:17.822Z,7.46
2022-12-25T05:13:44.424Z,7.44
2022-12-25T05:16:15.765Z,7.42
2022-12-25T05:18:42.589Z,7.38
2022-12-25T05:21:11.702Z,7.34
2022-12-25T05:23:50.200Z,7.33
2022-12-25T05:26:30.496Z,7.33
2022-12-25T05:29:02.754Z,7.28
2022-12-25T05:31:31.947Z,7.28
2022-12-25T05:33:58.431Z,7.26
2022-12-25T05:36:27.405Z,7.23
2022-12-25T05:38:56.661Z,7.23
2022-12-25T05:41:23.060Z,7.24
2022-12-25T05:43:52.796Z,7.22
2022-12-25T05:46:22.079Z,7.19
2022-12-25T05:48:48.746Z,7.19
2022-12-25T05:51:16.171Z,7.16
2022-12-25T05:53:45.580Z,7.18
2022-12-25T05:56:12.034Z,7.20
2022-12-25T05:58:47.910Z,7.22
2022-12-25T06:01:23.595Z,7.22
2022-12-25T06:03:50.206Z,7.24
2022-12-25T06:06:16.668Z,7.25
2022-12-25T06:08:48.108Z,7.27
2022-12-25T06:11:15.735Z,7.34
2022-12-25T06:13:42.586Z,7.36
2022-12-25T06:16:18.756Z,7.37
2022-12-25T06:18:48.987Z,7.40
2022-12-25T06:21:16.013Z,7.43
2022-12-25T06:23:42.476Z,7.43
2022-12-25T06:26:22.195Z,7.45
2022-12-25T06:28:48.717Z,7.46
2022-12-25T06:31:25.106Z,7.52
2022-12-25T06:33:51.722Z,7.57
2022-12-25T06:36:23.694Z,7.61
2022-12-25T06:38:53.955Z,7.67
2022-12-25T06:41:27.917Z,7.72
2022-12-25T06:43:56.909Z,7.78
2022-12-25T06:46:28.708Z,7.84
2022-12-25T06:48:59.412Z,7.89
2022-12-25T06:51:48.078Z,7.95
2022-12-25T06:54:14.545Z,8.01
2022-12-25T06:56:40.971Z,8.02
2022-12-25T07:02:07.285Z,8.09
2022-12-25T07:04:41.102Z,8.12
2022-12-25T07:07:09.612Z,8.17
2022-12-25T07:09:42.865Z,8.20
2022-12-25T07:12:26.304Z,8.26
2022-12-25T07:14:56.562Z,8.33
2022-12-25T07:17:33.489Z,8.40
2022-12-25T07:19:59.847Z,8.43
2022-12-25T07:22:34.944Z,8.50
2022-12-25T07:25:01.306Z,8.55
2022-12-25T07:27:33.797Z,8.61
2022-12-25T07:30:03.175Z,8.64
2022-12-25T07:35:19.274Z,8.76
2022-12-25T07:37:45.765Z,8.78
2022-12-25T07:40:12.407Z,8.82
2022-12-25T07:42:41.541Z,8.84
2022-12-25T07:45:11.154Z,8.88
2022-12-25T07:47:37.553Z,8.93
2022-12-25T07:50:11.130Z,8.94
2022-12-25T07:52:43.201Z,8.96
2022-12-25T07:55:10.613Z,8.97
2022-12-25T07:57:36.965Z,8.99
2022-12-25T08:00:05.197Z,9.01
2022-12-25T08:02:34.786Z,9.07
2022-12-25T08:05:01.389Z,9.14
2022-12-25T08:07:27.775Z,9.16
2022-12-25T08:09:57.380Z,9.21
2022-12-25T08:12:26.910Z,9.25
2022-12-25T08:14:53.285Z,9.24
2022-12-25T08:17:22.676Z,9.27
2022-12-25T08:19:51.912Z,9.32
2022-12-25T08:22:18.261Z,9.33
2022-12-25T08:24:47.735Z,9.18
2022-12-25T08:27:14.197Z,9.11
2022-12-25T08:29:40.529Z,9.07
2022-12-25T08:32:10.805Z,9.01
2022-12-25T08:34:40.325Z,8.99
2022-12-25T08:37:14.097Z,8.98
2022-12-25T08:39:42.529Z,8.94
2022-12-25T08:42:08.881Z,8.93
2022-12-25T08:44:39.612Z,8.91
2022-12-25T08:47:05.976Z,8.85
2022-12-25T08:49:32.329Z,8.84
2022-12-25T08:54:53.749Z,8.77
2022-12-25T08:57:26.285Z,8.74
2022-12-25T08:59:55.877Z,8.72
2022-12-25T09:02:25.835Z,8.70
2022-12-25T09:04:59.501Z,8.68
2022-12-25T09:07:27.822Z,8.69
2022-12-25T09:10:02.749Z,8.67
2022-12-25T09:15:15.845Z,8.63
2022-12-25T09:17:45.399Z,8.62
2022-12-25T09:20:11.805Z,8.62
2022-12-25T09:22:41.474Z,8.63
2022-12-25T09:25:08.206Z,8.63
2022-12-25T09:27:34.784Z,8.66
2022-12-25T09:30:02.631Z,8.65
2022-12-25T09:32:31.751Z,8.67
2022-12-25T09:34:58.459Z,8.72
2022-12-25T09:37:25.056Z,8.74
2022-12-25T09:39:51.774Z,8.80
2022-12-25T09:42:22.177Z,8.86
2022-12-25T09:45:18.164Z,8.94
2022-12-25T09:47:49.408Z,9.00
2022-12-25T09:50:42.200Z,9.07
2022-12-25T09:53:36.982Z,9.13
2022-12-25T09:56:11.455Z,9.18
2022-12-25T09:58:41.220Z,9.20
2022-12-25T10:01:29.557Z,9.21
2022-12-25T10:04:25.241Z,9.16
2022-12-25T10:07:14.971Z,9.12
2022-12-25T10:10:04.529Z,9.17
2022-12-25T10:13:15.538Z,9.18
2022-12-25T10:16:19.199Z,9.22
2022-12-25T10:19:17.145Z,9.17
2022-12-25T10:21:44.292Z,9.10
2022-12-25T10:24:25.973Z,9.09
2022-12-25T10:27:12.722Z,9.11
2022-12-25T10:29:40.241Z,9.08
2022-12-25T10:32:10.978Z,9.04
2022-12-25T10:34:45.781Z,9.06
2022-12-25T10:37:12.702Z,9.03
2022-12-25T10:39:46.855Z,9.03
2022-12-25T10:42:34.857Z,9.01
2022-12-25T10:45:16.364Z,9.01
2022-12-25T10:48:07.415Z,8.99
2022-12-25T10:50:56.235Z,8.99
2022-12-25T10:56:17.483Z,8.97
2022-12-25T10:58:44.038Z,8.95
2022-12-25T11:01:16.534Z,8.92
2022-12-25T11:03:51.461Z,8.92
2022-12-25T11:06:29.621Z,8.93
2022-12-25T11:09:04.779Z,8.95
2022-12-25T11:11:31.575Z,8.97
2022-12-25T11:14:03.640Z,8.98
2022-12-25T11:16:38.045Z,8.97
2022-12-25T11:19:24.789Z,8.95
2022-12-25T11:21:57.447Z,8.91
2022-12-25T11:24:34.841Z,8.90
2022-12-25T11:29:52.641Z,8.91
2022-12-25T11:32:35.763Z,8.91
2022-12-25T11:35:15.357Z,8.93
2022-12-25T11:37:57.564Z,8.95
2022-12-25T11:40:47.311Z,8.96
2022-12-25T11:43:35.206Z,9.00
2022-12-25T11:46:27.021Z,9.06
2022-12-25T11:51:45.880Z,9.14
2022-12-25T11:54:39.315Z,9.17
2022-12-25T11:57:13.714Z,9.16
2022-12-25T12:00:15.998Z,9.15
2022-12-25T12:02:59.669Z,9.15
2022-12-25T12:05:42.623Z,9.11
2022-12-25T12:08:34.019Z,9.07
2022-12-25T12:11:37.512Z,9.03
2022-12-25T12:14:06.732Z,9.02
2022-12-25T12:16:39.189Z,9.04
2022-12-25T12:19:29.246Z,9.06
2022-12-25T12:22:01.534Z,9.07
2022-12-25T12:24:43.230Z,9.06
2022-12-25T12:27:35.718Z,9.10
2022-12-25T12:30:05.246Z,9.11
2022-12-25T12:32:36.282Z,9.07
2022-12-25T12:35:18.724Z,9.06
2022-12-25T12:37:51.898Z,9.03
2022-12-25T12:40:44.113Z,9.01
2022-12-25T12:43:47.030Z,9.00
2022-12-25T12:46:30.633Z,8.99
2022-12-25T12:49:23.796Z,8.97
2022-12-25T12:52:05.591Z,8.98
2022-12-25T12:54:32.198Z,8.95
2022-12-25T12:57:29.790Z,8.93
2022-12-25T12:59:59.917Z,8.91
2022-12-25T13:03:09.874Z,8.93
2022-12-25T13:05:42.312Z,8.93
2022-12-25T13:08:08.669Z,8.93
2022-12-25T13:10:50.463Z,8.91
2022-12-25T13:13:49.896Z,8.92
2022-12-25T13:19:22.078Z,8.89
2022-12-25T13:22:07.155Z,8.90
2022-12-25T13:24:38.470Z,8.91
2022-12-25T13:27:28.537Z,8.89
2022-12-25T13:33:00.454Z,8.90
2022-12-25T13:35:29.850Z,8.89
2022-12-25T13:37:56.585Z,8.87
2022-12-25T13:40:27.815Z,8.88
2022-12-25T13:42:59.243Z,8.87
2022-12-25T13:45:35.551Z,8.87
2022-12-25T13:48:17.467Z,8.86
2022-12-25T13:50:48.313Z,8.87
2022-12-25T13:53:20.524Z,8.85
2022-12-25T13:56:00.162Z,8.86
2022-12-25T13:58:33.616Z,8.83
2022-12-25T14:01:04.176Z,8.82
2022-12-25T14:06:21.570Z,8.82
2022-12-25T14:08:52.413Z,8.81
2022-12-25T14:11:25.785Z,8.81
2022-12-25T14:13:57.411Z,8.82
2022-12-25T14:16:27.736Z,8.84
2022-12-25T14:19:02.480Z,8.85
2022-12-25T14:21:34.927Z,8.87
2022-12-25T14:24:02.002Z,8.86
2022-12-25T14:26:33.996Z,8.86
2022-12-25T14:29:17.555Z,8.83
2022-12-25T14:31:47.491Z,8.83
2022-12-25T14:34:44.185Z,8.82
2022-12-25T14:37:28.470Z,8.84
2022-12-25T14:40:27.283Z,8.84
2022-12-25T14:43:01.049Z,8.83
2022-12-25T14:48:25.988Z,8.81
2022-12-25T14:51:07.727Z,8.82
2022-12-25T14:53:56.049Z,8.82
2022-12-25T14:56:28.534Z,8.83
2022-12-25T14:58:59.425Z,8.81
2022-12-25T15:01:33.850Z,8.80
2022-12-25T15:07:11.873Z,8.80
2022-12-25T15:09:40.864Z,8.79
2022-12-25T15:12:07.269Z,8.79
2022-12-25T15:14:39.327Z,8.81
2022-12-25T15:17:40.816Z,8.84
2022-12-25T15:20:14.066Z,8.82
2022-12-25T15:23:10.328Z,8.81
2022-12-25T15:25:32.202Z,8.83
2022-12-25T15:27:59.444Z,8.82
2022-12-25T15:30:28.454Z,8.82
2022-12-25T15:32:57.658Z,8.85
2022-12-25T15:38:05.865Z,8.86
2022-12-25T15:40:35.078Z,8.86
2022-12-25T15:43:06.385Z,8.87
2022-12-25T15:45:38.245Z,8.84
2022-12-25T15:48:04.810Z,8.87
2022-12-25T15:50:32.878Z,8.90
2022-12-25T15:53:02.040Z,8.92
2022-12-25T15:55:28.439Z,8.92
2022-12-25T15:57:54.997Z,8.93
2022-12-25T16:00:25.507Z,8.93
2022-12-25T16:02:54.953Z,8.93
2022-12-25T16:05:27.042Z,8.92
2022-12-25T16:07:56.359Z,8.89
2022-12-25T16:10:22.885Z,8.88
2022-12-25T16:12:51.633Z,8.88
2022-12-25T16:15:20.927Z,8.88
2022-12-25T16:17:47.376Z,8.88
2022-12-25T16:20:26.874Z,8.92
2022-12-25T16:22:58.053Z,8.93
2022-12-25T16:25:27.300Z,8.95
2022-12-25T16:28:01.071Z,8.98
2022-12-25T16:30:30.608Z,8.97
2022-12-25T16:32:56.970Z,8.98
2022-12-25T16:35:26.531Z,8.99
2022-12-25T16:37:56.016Z,8.99
2022-12-25T16:40:46.917Z,8.99
2022-12-25T16:43:21.943Z,8.99
2022-12-25T16:45:53.354Z,8.98
2022-12-25T16:48:19.960Z,8.95
2022-12-25T16:50:46.320Z,8.92
2022-12-25T16:53:15.174Z,8.89
2022-12-25T16:55:44.401Z,8.89
2022-12-25T16:58:10.788Z,8.90
2022-12-25T17:00:37.161Z,8.89
2022-12-25T17:03:03.814Z,8.92
2022-12-25T17:05:32.889Z,8.91
2022-12-25T17:08:02.866Z,8.90
2022-12-25T17:10:31.827Z,8.87
2022-12-25T17:12:58.259Z,8.84
2022-12-25T17:15:27.839Z,8.82
2022-12-25T17:17:58.044Z,8.83
2022-12-25T17:20:24.453Z,8.81
2022-12-25T17:23:01.194Z,8.81
2022-12-25T17:25:27.803Z,8.79
2022-12-25T17:27:57.783Z,8.76
2022-12-25T17:30:27.146Z,8.75
2022-12-25T17:35:40.897Z,8.72
2022-12-25T17:38:10.360Z,8.72
2022-12-25T17:40:36.747Z,8.70
2022-12-25T17:43:07.055Z,8.69
2022-12-25T17:45:36.985Z,8.68
2022-12-25T17:48:06.517Z,8.69
2022-12-25T17:50:41.125Z,8.66
2022-12-25T17:53:13.873Z,8.64
2022-12-25T17:55:41.268Z,8.60
2022-12-25T17:58:11.062Z,8.60
2022-12-25T18:00:37.458Z,8.61
2022-12-25T18:03:11.206Z,8.61
2022-12-25T18:05:40.568Z,8.60
2022-12-25T18:08:06.961Z,8.59
2022-12-25T18:10:38.649Z,8.59
2022-12-25T18:13:05.659Z,8.61
2022-12-25T18:15:32.576Z,8.58
2022-12-25T18:17:59.403Z,8.61
2022-12-25T18:20:28.385Z,8.56
2022-12-25T18:22:57.640Z,8.62
2022-12-25T18:25:26.779Z,8.61
2022-12-25T18:28:02.484Z,8.58
2022-12-25T18:30:32.139Z,8.57
2022-12-25T18:33:00.801Z,8.55
2022-12-25T18:35:37.153Z,8.57
2022-12-25T18:38:06.855Z,8.58
2022-12-25T18:40:33.270Z,8.57
2022-12-25T18:43:12.639Z,8.52
2022-12-25T18:45:45.127Z,8.54
2022-12-25T18:48:11.616Z,8.56
2022-12-25T18:50:42.587Z,8.55
2022-12-25T18:53:09.326Z,8.56
2022-12-25T18:55:40.654Z,8.55
2022-12-25T18:58:21.640Z,8.50
2022-12-25T19:00:51.529Z,8.50
2022-12-25T19:03:21.318Z,8.47
2022-12-25T19:05:47.772Z,8.47
2022-12-25T19:08:17.877Z,8.48
2022-12-25T19:10:47.239Z,8.47
2022-12-25T19:13:13.819Z,8.47
2022-12-25T19:15:42.367Z,8.46
2022-12-25T19:18:11.941Z,8.47
2022-12-25T19:20:40.980Z,8.49
2022-12-25T19:23:15.816Z,8.47
2022-12-25T19:28:27.956Z,8.49
2022-12-25T19:30:59.966Z,8.46
2022-12-25T19:36:20.125Z,8.46
2022-12-25T19:38:47.054Z,8.46
2022-12-25T19:41:18.685Z,8.46
2022-12-25T19:43:49.732Z,8.44
2022-12-25T19:46:49.666Z,8.44
2022-12-25T19:49:20.444Z,8.43
2022-12-25T19:51:49.608Z,8.44
2022-12-25T19:56:59.118Z,8.44
2022-12-25T19:59:28.554Z,8.43
2022-12-25T20:01:58.518Z,8.44
2022-12-25T20:04:27.868Z,8.46
2022-12-25T20:06:54.314Z,8.47
2022-12-25T20:09:21.746Z,8.47
2022-12-25T20:11:53.698Z,8.48
2022-12-25T20:14:23.282Z,8.46
2022-12-25T20:16:49.918Z,8.48
2022-12-25T20:19:18.788Z,8.48
2022-12-25T20:21:47.955Z,8.50
2022-12-25T20:24:14.458Z,8.49
2022-12-25T20:26:47.653Z,8.51
2022-12-25T20:29:15.502Z,8.54
2022-12-25T20:31:44.955Z,8.54
2022-12-25T20:34:15.095Z,8.57
2022-12-25T20:36:41.528Z,8.55
2022-12-25T20:39:16.319Z,8.57
2022-12-25T20:41:42.951Z,8.59
2022-12-25T20:44:13.706Z,8.60
2022-12-25T20:46:43.310Z,8.61
2022-12-25T20:49:10.120Z,8.62
2022-12-25T20:51:43.976Z,8.63
2022-12-25T20:54:10.937Z,8.64
2022-12-25T20:56:43.504Z,8.63
2022-12-25T20:59:11.733Z,8.63
2022-12-25T21:01:40.632Z,8.64
2022-12-25T21:04:12.910Z,8.66
2022-12-25T21:06:45.025Z,8.67
2022-12-25T21:09:18.679Z,8.66
2022-12-25T21:11:45.055Z,8.64
2022-12-25T21:14:14.002Z,8.64
2022-12-25T21:16:40.588Z,8.67
2022-12-25T21:19:07.201Z,8.68
2022-12-25T21:21:38.171Z,8.69
2022-12-25T21:24:04.728Z,8.69
2022-12-25T21:26:31.832Z,8.71
2022-12-25T21:29:03.356Z,8.72
2022-12-25T21:31:30.755Z,8.73
2022-12-25T21:34:05.003Z,8.74
2022-12-25T21:36:34.661Z,8.77
2022-12-25T21:39:08.186Z,8.80
2022-12-25T21:41:39.303Z,8.81
2022-12-25T21:44:09.175Z,8.82
2022-12-25T21:46:38.764Z,8.88
2022-12-25T21:49:05.489Z,8.92
2022-12-25T21:51:54.449Z,8.94
2022-12-25T21:54:23.803Z,8.98
2022-12-25T21:56:53.210Z,8.98
2022-12-25T21:59:25.300Z,9.01
2022-12-25T22:01:52.789Z,9.03
2022-12-25T22:04:22.445Z,9.06
2022-12-25T22:07:10.385Z,9.12
2022-12-25T22:09:37.186Z,9.14
2022-12-25T22:12:32.005Z,9.13
2022-12-25T22:15:08.823Z,9.17
2022-12-25T22:17:59.168Z,9.17
2022-12-25T22:20:27.038Z,9.19
2022-12-25T22:22:54.431Z,9.20
2022-12-25T22:25:24.693Z,9.21
2022-12-25T22:27:55.935Z,9.23
2022-12-25T22:30:27.329Z,9.22
2022-12-25T22:32:58.224Z,9.23
2022-12-25T22:35:27.366Z,9.23
2022-12-25T22:37:54.237Z,9.23
2022-12-25T22:40:24.731Z,9.23
2022-12-25T22:42:55.626Z,9.25
2022-12-25T22:45:25.515Z,9.25
2022-12-25T22:47:54.215Z,9.22
2022-12-25T22:50:20.788Z,9.23
2022-12-25T22:52:49.646Z,9.22
2022-12-25T22:55:21.052Z,9.22
2022-12-25T22:57:50.996Z,9.24
2022-12-25T23:00:17.775Z,9.22
2022-12-25T23:02:44.436Z,9.20
2022-12-25T23:05:10.981Z,9.20
2022-12-25T23:07:42.182Z,9.21
2022-12-25T23:10:12.094Z,9.22
2022-12-25T23:13:12.267Z,9.22
2022-12-25T23:15:38.736Z,9.27
2022-12-25T23:18:26.354Z,9.30
2022-12-25T23:21:19.426Z,9.32
2022-12-25T23:24:10.685Z,9.32
2022-12-25T23:26:39.848Z,9.34
2022-12-25T23:29:25.029Z,9.36
2022-12-25T23:31:56.043Z,9.38
2022-12-25T23:34:25.576Z,9.38
2022-12-25T23:36:51.948Z,9.38
2022-12-25T23:39:27.959Z,9.42
2022-12-25T23:41:54.495Z,9.45
2022-12-25T23:44:21.511Z,9.49
2022-12-25T23:46:52.895Z,9.50
2022-12-25T23:49:26.276Z,9.49
2022-12-25T23:51:56.676Z,9.52
2022-12-25T23:54:29.828Z,9.56
2022-12-25T23:56:59.822Z,9.59
2022-12-25T23:59:30.397Z,9.60
